Terminal Aerodrome Forecast
Issued by NWS Jackson, MS

Home | Current Version | Previous Version | Text Only | Print | Product List | Glossary On
Versions: 1 2 3 4 5 6 7 8 9 10 11 12 13 14 15 16 17 18
018
FTUS44 KJAN 201144
TAFHBG
TAF
KHBG 201144Z 2012/2112 00000KT 1/4SM FG VV001
     FM201430 13004KT 2SM BR BKN003
     FM201600 15008KT P6SM SKC
     FM210300 15007KT P6SM SCT025
     FM210900 15008KT 1/2SM FG VV001=

USA.gov is the U.S. government's official web portal to all federal, state and local government web resources and services.